createdAt,value
2022-12-03T00:00:50.648Z,1.2
2022-12-03T00:01:50.802Z,1.2
2022-12-03T00:02:51.222Z,1.2
2022-12-03T00:03:51.889Z,1.2
2022-12-03T00:04:53.250Z,1.1
2022-12-03T00:05:53.865Z,1.1
2022-12-03T00:06:54.018Z,1.1
2022-12-03T00:07:54.293Z,1.1
2022-12-03T00:08:54.538Z,1.1
2022-12-03T00:09:54.686Z,1.1
2022-12-03T00:10:54.842Z,1.1
2022-12-03T00:11:54.996Z,1.1
2022-12-03T00:12:55.150Z,1.1
2022-12-03T00:13:55.308Z,1.1
2022-12-03T00:14:55.969Z,1
2022-12-03T00:15:56.901Z,1
2022-12-03T00:16:57.168Z,1
2022-12-03T00:17:57.329Z,1
2022-12-03T00:18:57.489Z,1
2022-12-03T00:19:57.644Z,1
2022-12-03T00:20:57.797Z,1
2022-12-03T00:21:57.949Z,1
2022-12-03T00:22:58.115Z,1
2022-12-03T00:23:58.273Z,1
2022-12-03T00:24:58.428Z,1
2022-12-03T00:25:58.612Z,1
2022-12-03T00:26:58.770Z,1
2022-12-03T00:27:58.921Z,1
2022-12-03T00:28:59.083Z,1
2022-12-03T00:29:59.235Z,1
2022-12-03T00:30:59.526Z,1
2022-12-03T00:31:59.793Z,1
2022-12-03T00:32:59.949Z,1
2022-12-03T00:34:00.124Z,1
2022-12-03T00:35:00.282Z,1.1
2022-12-03T00:36:00.441Z,1.1
2022-12-03T00:37:00.590Z,1.1
2022-12-03T00:38:00.741Z,1.1
2022-12-03T00:39:00.900Z,1.1
2022-12-03T00:40:01.180Z,1.1
2022-12-03T00:41:01.653Z,1.1
2022-12-03T00:42:01.806Z,1.1
2022-12-03T00:43:01.955Z,1.1
2022-12-03T00:44:02.110Z,1.1
2022-12-03T00:45:02.263Z,1.2
2022-12-03T00:46:02.552Z,1.2
2022-12-03T00:47:02.936Z,1.2
2022-12-03T00:48:03.520Z,1.2
2022-12-03T00:49:03.677Z,1.2
2022-12-03T00:50:03.845Z,1.2
2022-12-03T00:51:04.041Z,1.2
2022-12-03T00:52:04.198Z,1.2
2022-12-03T00:53:04.351Z,1.2
2022-12-03T00:54:04.501Z,1.2
2022-12-03T00:55:04.661Z,1.3
2022-12-03T00:56:04.819Z,1.3
2022-12-03T00:57:04.966Z,1.3
2022-12-03T00:58:05.117Z,1.3
2022-12-03T00:59:05.273Z,1.3
2022-12-03T01:00:05.426Z,1.3
2022-12-03T01:01:05.584Z,1.3
2022-12-03T01:02:05.999Z,1.3
2022-12-03T01:03:06.287Z,1.3
2022-12-03T01:04:06.436Z,1.3
2022-12-03T01:05:06.761Z,1.4
2022-12-03T01:06:07.055Z,1.4
2022-12-03T01:07:07.219Z,1.4
2022-12-03T01:08:07.532Z,1.4
2022-12-03T01:09:07.842Z,1.4
2022-12-03T01:10:07.993Z,1.4
2022-12-03T01:11:08.149Z,1.4
2022-12-03T01:12:08.300Z,1.4
2022-12-03T01:13:08.452Z,1.4
2022-12-03T01:14:08.605Z,1.4
2022-12-03T01:15:08.754Z,1.5
2022-12-03T01:16:09.039Z,1.5
2022-12-03T01:17:09.419Z,1.5
2022-12-03T01:18:09.570Z,1.5
2022-12-03T01:19:09.724Z,1.5
2022-12-03T01:20:09.887Z,1.5
2022-12-03T01:21:10.041Z,1.5
2022-12-03T01:22:10.195Z,1.5
2022-12-03T01:23:10.347Z,1.5
2022-12-03T01:24:10.506Z,1.5
2022-12-03T01:25:10.658Z,1.7
2022-12-03T01:26:10.814Z,1.7
2022-12-03T01:27:10.967Z,1.7
2022-12-03T01:28:11.130Z,1.7
2022-12-03T01:29:11.291Z,1.7
2022-12-03T01:30:11.442Z,1.7
2022-12-03T01:31:11.705Z,1.7
2022-12-03T01:32:12.055Z,1.7
2022-12-03T01:33:12.207Z,1.7
2022-12-03T01:34:12.363Z,1.7
2022-12-03T01:35:12.528Z,1.8
2022-12-03T01:36:12.689Z,1.8
2022-12-03T01:37:12.882Z,1.8
2022-12-03T01:38:13.074Z,1.8
2022-12-03T01:39:13.243Z,1.8
2022-12-03T01:40:13.403Z,1.8
2022-12-03T01:41:13.563Z,1.8
2022-12-03T01:42:13.717Z,1.8
2022-12-03T01:43:13.871Z,1.8
2022-12-03T01:44:14.019Z,1.8
2022-12-03T01:45:14.167Z,1.8
2022-12-03T01:46:14.446Z,1.8
2022-12-03T01:47:14.759Z,1.8
2022-12-03T01:48:14.908Z,1.8
2022-12-03T01:49:15.063Z,1.8
2022-12-03T01:50:15.214Z,1.8
2022-12-03T01:51:15.376Z,1.8
2022-12-03T01:52:15.527Z,1.8
2022-12-03T01:53:15.698Z,1.8
2022-12-03T01:54:15.849Z,1.8
2022-12-03T01:55:16.011Z,1.9
2022-12-03T01:56:16.171Z,1.9
2022-12-03T01:57:16.328Z,1.9
2022-12-03T01:58:16.476Z,1.9
2022-12-03T01:59:16.633Z,1.9
2022-12-03T02:00:16.852Z,1.9
2022-12-03T02:01:17.159Z,1.9
2022-12-03T02:02:17.665Z,1.9
2022-12-03T02:03:17.896Z,1.9
2022-12-03T02:04:18.179Z,1.9
2022-12-03T02:05:18.490Z,2
2022-12-03T02:06:18.691Z,2
2022-12-03T02:07:18.926Z,2
2022-12-03T02:08:19.079Z,2
2022-12-03T02:09:19.228Z,2
2022-12-03T02:10:19.381Z,2
2022-12-03T02:11:19.531Z,2
2022-12-03T02:12:19.684Z,2
2022-12-03T02:13:19.838Z,2
2022-12-03T02:14:19.994Z,2
2022-12-03T02:15:20.148Z,2.09
2022-12-03T02:16:20.537Z,2.09
2022-12-03T02:17:20.819Z,2.09
2022-12-03T02:18:20.992Z,2.09
2022-12-03T02:19:21.169Z,2.09
2022-12-03T02:20:21.351Z,2.09
2022-12-03T02:21:21.533Z,2.09
2022-12-03T02:22:21.689Z,2.09
2022-12-03T02:23:21.848Z,2.09
2022-12-03T02:24:22.015Z,2.09
2022-12-03T02:25:22.192Z,2.09
2022-12-03T02:26:22.354Z,2.09
2022-12-03T02:27:22.501Z,2.09
2022-12-03T02:28:22.653Z,2.09
2022-12-03T02:29:22.802Z,2.09
2022-12-03T02:30:22.951Z,2.09
2022-12-03T02:31:23.263Z,2.09
2022-12-03T02:32:23.646Z,2.09
2022-12-03T02:33:23.824Z,2.09
2022-12-03T02:34:23.998Z,2.09
2022-12-03T02:35:24.151Z,2.2
2022-12-03T02:36:24.307Z,2.2
2022-12-03T02:37:24.456Z,2.2
2022-12-03T02:38:24.608Z,2.2
2022-12-03T02:39:24.760Z,2.2
2022-12-03T02:40:24.916Z,2.2
2022-12-03T02:41:25.077Z,2.2
2022-12-03T02:42:25.235Z,2.2
2022-12-03T02:43:25.386Z,2.2
2022-12-03T02:44:25.552Z,2.2
2022-12-03T02:45:25.817Z,2.2
2022-12-03T02:46:26.141Z,2.2
2022-12-03T02:47:26.458Z,2.2
2022-12-03T02:48:26.606Z,2.2
2022-12-03T02:49:26.763Z,2.2
2022-12-03T02:50:26.920Z,2.2
2022-12-03T02:51:27.069Z,2.2
2022-12-03T02:52:27.223Z,2.2
2022-12-03T02:53:27.382Z,2.2
2022-12-03T02:54:27.554Z,2.2
2022-12-03T02:55:36.468Z,2.2
2022-12-03T02:56:37.677Z,2.2
2022-12-03T02:57:37.829Z,2.2
2022-12-03T02:58:37.986Z,2.2
2022-12-03T02:59:38.139Z,2.2
2022-12-03T03:00:38.417Z,2.2
2022-12-03T03:01:38.947Z,2.2
2022-12-03T03:02:39.579Z,2.2
2022-12-03T03:03:39.834Z,2.2
2022-12-03T03:04:39.988Z,2.2
2022-12-03T03:05:40.186Z,2.2
2022-12-03T03:06:40.400Z,2.2
2022-12-03T03:07:40.729Z,2.2
2022-12-03T03:08:40.955Z,2.2
2022-12-03T03:09:41.110Z,2.2
2022-12-03T03:10:41.264Z,2.2
2022-12-03T03:11:41.416Z,2.2
2022-12-03T03:12:41.570Z,2.2
2022-12-03T03:13:41.738Z,2.2
2022-12-03T03:14:41.901Z,2.2
2022-12-03T03:15:42.068Z,2.2
2022-12-03T03:16:42.376Z,2.2
2022-12-03T03:17:42.668Z,2.2
2022-12-03T03:18:42.816Z,2.2
2022-12-03T03:19:42.965Z,2.2
2022-12-03T03:20:43.118Z,2.2
2022-12-03T03:21:43.267Z,2.2
2022-12-03T03:22:43.413Z,2.2
2022-12-03T03:23:43.560Z,2.2
2022-12-03T03:24:43.720Z,2.2
2022-12-03T03:25:43.870Z,2.2
2022-12-03T03:26:44.022Z,2.2
2022-12-03T03:27:44.171Z,2.2
2022-12-03T03:28:44.329Z,2.2
2022-12-03T03:29:44.480Z,2.2
2022-12-03T03:30:44.642Z,2.2
2022-12-03T03:31:44.981Z,2.2
2022-12-03T03:32:45.354Z,2.2
2022-12-03T03:33:45.510Z,2.2
2022-12-03T03:34:45.672Z,2.2
2022-12-03T03:35:45.823Z,2.2
2022-12-03T03:36:46.008Z,2.2
2022-12-03T03:37:46.155Z,2.2
2022-12-03T03:38:46.300Z,2.2
2022-12-03T03:39:46.449Z,2.2
2022-12-03T03:40:46.604Z,2.2
2022-12-03T03:41:46.773Z,2.2
2022-12-03T03:42:46.940Z,2.2
2022-12-03T03:43:47.101Z,2.2
2022-12-03T03:44:47.249Z,2.2
2022-12-03T03:45:47.523Z,2.2
2022-12-03T03:46:47.814Z,2.2
2022-12-03T03:47:47.969Z,2.2
2022-12-03T03:48:48.121Z,2.2
2022-12-03T03:49:48.275Z,2.2
2022-12-03T03:50:48.440Z,2.2
2022-12-03T03:51:48.596Z,2.2
2022-12-03T03:52:48.750Z,2.2
2022-12-03T03:53:48.905Z,2.2
2022-12-03T03:54:49.053Z,2.2
2022-12-03T03:55:49.224Z,2.2
2022-12-03T03:56:49.371Z,2.2
2022-12-03T03:57:49.523Z,2.2
2022-12-03T03:58:49.680Z,2.2
2022-12-03T03:59:49.839Z,2.2
2022-12-03T04:00:50.072Z,2.2
2022-12-03T04:01:50.308Z,2.2
2022-12-03T04:02:50.459Z,2.2
2022-12-03T04:03:50.761Z,2.2
2022-12-03T04:04:51.781Z,2.09
2022-12-03T04:05:52.544Z,2.09
2022-12-03T04:06:52.693Z,2.09
2022-12-03T04:07:52.972Z,2.09
2022-12-03T04:08:53.267Z,2.09
2022-12-03T04:09:53.416Z,2.09
2022-12-03T04:10:53.568Z,2.09
2022-12-03T04:11:53.717Z,2.09
2022-12-03T04:12:53.869Z,2.09
2022-12-03T04:13:54.021Z,2.09
2022-12-03T04:14:54.667Z,2.09
2022-12-03T04:15:55.288Z,2.09
2022-12-03T04:16:55.598Z,2.09
2022-12-03T04:17:55.816Z,2.09
2022-12-03T04:18:55.966Z,2.09
2022-12-03T04:19:56.121Z,2.09
2022-12-03T04:20:56.284Z,2.09
2022-12-03T04:21:56.447Z,2.09
2022-12-03T04:22:56.595Z,2.09
2022-12-03T04:23:56.750Z,2.09
2022-12-03T04:24:56.904Z,2.2
2022-12-03T04:25:57.058Z,2.2
2022-12-03T04:26:57.217Z,2.2
2022-12-03T04:27:57.372Z,2.2
2022-12-03T04:28:57.523Z,2.2
2022-12-03T04:29:57.674Z,2.2
2022-12-03T04:30:58.089Z,2.2
2022-12-03T04:31:58.297Z,2.2
2022-12-03T04:32:58.448Z,2.2
2022-12-03T04:33:58.599Z,2.2
2022-12-03T04:34:58.749Z,2.09
2022-12-03T04:35:59.044Z,2.09
2022-12-03T04:36:59.351Z,2.09
2022-12-03T04:37:59.517Z,2.09
2022-12-03T04:38:59.675Z,2.09
2022-12-03T04:39:59.825Z,2.09
2022-12-03T04:40:59.986Z,2.09
2022-12-03T04:42:00.212Z,2.09
2022-12-03T04:43:00.375Z,2.09
2022-12-03T04:44:00.526Z,2.09
2022-12-03T04:45:00.679Z,2.09
2022-12-03T04:46:01.000Z,2.09
2022-12-03T04:47:01.346Z,2.09
2022-12-03T04:48:01.505Z,2.09
2022-12-03T04:49:01.664Z,2.09
2022-12-03T04:50:01.820Z,2.09
2022-12-03T04:51:01.974Z,2.09
2022-12-03T04:52:02.127Z,2.09
2022-12-03T04:53:02.282Z,2.09
2022-12-03T04:54:02.450Z,2.09
2022-12-03T04:55:02.606Z,2.09
2022-12-03T04:56:02.753Z,2.09
2022-12-03T04:57:02.902Z,2.09
2022-12-03T04:58:03.065Z,2.09
2022-12-03T04:59:03.221Z,2.09
2022-12-03T05:00:03.374Z,2.09
2022-12-03T05:01:03.681Z,2.09
2022-12-03T05:02:04.346Z,2.09
2022-12-03T05:03:04.961Z,2.09
2022-12-03T05:04:05.235Z,2.09
2022-12-03T05:05:05.394Z,2.09
2022-12-03T05:06:05.552Z,2.09
2022-12-03T05:07:05.714Z,2.09
2022-12-03T05:08:06.052Z,2.09
2022-12-03T05:09:06.450Z,2.09
2022-12-03T05:10:06.606Z,2.09
2022-12-03T05:11:06.761Z,2.09
2022-12-03T05:12:06.918Z,2.09
2022-12-03T05:13:07.072Z,2.09
2022-12-03T05:14:07.224Z,2.09
2022-12-03T05:15:07.381Z,2.09
2022-12-03T05:16:07.543Z,2.09
2022-12-03T05:17:07.877Z,2.09
2022-12-03T05:18:08.138Z,2.09
2022-12-03T05:19:08.857Z,2.09
2022-12-03T05:20:09.030Z,2.09
2022-12-03T05:21:09.179Z,2.09
2022-12-03T05:22:09.330Z,2.09
2022-12-03T05:23:09.478Z,2.09
2022-12-03T05:24:09.630Z,2.09
2022-12-03T05:25:09.816Z,2
2022-12-03T05:26:09.967Z,2
2022-12-03T05:27:10.120Z,2
2022-12-03T05:28:10.286Z,2
2022-12-03T05:29:10.438Z,2
2022-12-03T05:30:10.593Z,2
2022-12-03T05:31:11.001Z,2
2022-12-03T05:32:11.393Z,2
2022-12-03T05:33:11.540Z,2
2022-12-03T05:34:11.688Z,2
2022-12-03T05:35:11.848Z,2
2022-12-03T05:36:12.017Z,2
2022-12-03T05:37:12.172Z,2
2022-12-03T05:38:12.340Z,2
2022-12-03T05:39:12.497Z,2
2022-12-03T05:40:12.650Z,2
2022-12-03T05:41:12.800Z,2
2022-12-03T05:42:12.966Z,2
2022-12-03T05:43:13.117Z,2
2022-12-03T05:44:20.764Z,2
2022-12-03T05:45:21.100Z,2
2022-12-03T05:46:21.434Z,2
2022-12-03T05:47:21.746Z,2
2022-12-03T05:48:21.903Z,2
2022-12-03T05:49:22.059Z,2
2022-12-03T05:50:22.208Z,2
2022-12-03T05:51:22.358Z,2
2022-12-03T05:52:22.521Z,2
2022-12-03T05:53:22.709Z,2
2022-12-03T05:54:22.868Z,2
2022-12-03T05:55:23.020Z,1.9
2022-12-03T05:56:23.165Z,1.9
2022-12-03T05:57:23.315Z,1.9
2022-12-03T05:58:23.467Z,1.9
2022-12-03T05:59:23.623Z,1.9
2022-12-03T06:00:23.788Z,1.9
2022-12-03T06:01:23.948Z,1.9
2022-12-03T06:02:24.394Z,1.9
2022-12-03T06:03:25.264Z,1.9
2022-12-03T06:04:25.692Z,1.9
2022-12-03T06:05:25.852Z,1.9
2022-12-03T06:06:26.003Z,1.9
2022-12-03T06:07:26.266Z,1.9
2022-12-03T06:08:26.511Z,1.9
2022-12-03T06:09:26.669Z,1.9
2022-12-03T06:10:26.819Z,1.9
2022-12-03T06:11:26.974Z,1.9
2022-12-03T06:12:27.129Z,1.9
2022-12-03T06:13:27.284Z,1.9
2022-12-03T06:14:27.443Z,1.9
2022-12-03T06:15:27.602Z,1.9
2022-12-03T06:16:27.927Z,1.9
2022-12-03T06:17:28.184Z,1.9
2022-12-03T06:18:28.333Z,1.9
2022-12-03T06:19:28.489Z,1.9
2022-12-03T06:20:28.638Z,1.9
2022-12-03T06:21:28.798Z,1.9
2022-12-03T06:22:28.960Z,1.9
2022-12-03T06:23:29.117Z,1.9
2022-12-03T06:24:29.276Z,1.9
2022-12-03T06:25:29.436Z,1.9
2022-12-03T06:26:29.584Z,1.9
2022-12-03T06:27:29.737Z,1.9
2022-12-03T06:28:29.891Z,1.9
2022-12-03T06:29:30.049Z,1.9
2022-12-03T06:30:30.210Z,1.9
2022-12-03T06:31:30.611Z,1.9
2022-12-03T06:32:30.912Z,1.9
2022-12-03T06:33:31.063Z,1.9
2022-12-03T06:34:31.213Z,1.9
2022-12-03T06:35:31.368Z,1.9
2022-12-03T06:36:31.525Z,1.9
2022-12-03T06:37:31.677Z,1.9
2022-12-03T06:38:31.831Z,1.9
2022-12-03T06:39:31.979Z,1.9
2022-12-03T06:40:32.137Z,1.9
2022-12-03T06:41:32.308Z,1.9
2022-12-03T06:42:32.465Z,1.9
2022-12-03T06:43:32.621Z,1.9
2022-12-03T06:44:32.773Z,1.9
2022-12-03T06:45:32.925Z,2
2022-12-03T06:46:33.217Z,2
2022-12-03T06:47:33.508Z,2
2022-12-03T06:48:33.674Z,2
2022-12-03T06:49:33.830Z,2
2022-12-03T06:50:33.981Z,2
2022-12-03T06:51:34.133Z,2
2022-12-03T06:52:34.294Z,2
2022-12-03T06:53:34.449Z,2
2022-12-03T06:54:34.608Z,2
2022-12-03T06:55:34.756Z,2
2022-12-03T06:56:44.824Z,2
2022-12-03T06:57:45.856Z,2
2022-12-03T06:58:46.003Z,2
2022-12-03T06:59:46.151Z,2
2022-12-03T07:00:46.308Z,2
2022-12-03T07:01:46.781Z,2
2022-12-03T07:02:47.181Z,2
2022-12-03T07:03:47.557Z,2
2022-12-03T07:04:47.703Z,2.09
2022-12-03T07:05:47.872Z,2.09
2022-12-03T07:06:48.019Z,2.09
2022-12-03T07:07:48.284Z,2.09
2022-12-03T07:08:48.512Z,2.09
2022-12-03T07:09:48.665Z,2.09
2022-12-03T07:10:48.825Z,2.09
2022-12-03T07:11:48.975Z,2.09
2022-12-03T07:12:49.138Z,2.09
2022-12-03T07:13:49.297Z,2.09
2022-12-03T07:14:49.453Z,2.09
2022-12-03T07:15:49.693Z,2.09
2022-12-03T07:16:49.991Z,2.09
2022-12-03T07:17:50.156Z,2.09
2022-12-03T07:18:50.320Z,2.09
2022-12-03T07:19:50.471Z,2.09
2022-12-03T07:20:50.622Z,2.09
2022-12-03T07:21:50.773Z,2.09
2022-12-03T07:22:50.928Z,2.09
2022-12-03T07:23:51.078Z,2.09
2022-12-03T07:24:51.805Z,2.09
2022-12-03T07:25:52.575Z,2.09
2022-12-03T07:26:52.734Z,2.09
2022-12-03T07:27:52.887Z,2.09
2022-12-03T07:28:53.035Z,2.09
2022-12-03T07:29:53.194Z,2.09
2022-12-03T07:30:53.469Z,2.09
2022-12-03T07:31:53.917Z,2.09
2022-12-03T07:32:54.279Z,2.09
2022-12-03T07:33:54.432Z,2.09
2022-12-03T07:34:55.321Z,2
2022-12-03T07:35:56.138Z,2
2022-12-03T07:36:56.286Z,2
2022-12-03T07:37:56.436Z,2
2022-12-03T07:38:56.594Z,2
2022-12-03T07:39:56.745Z,2
2022-12-03T07:40:56.905Z,2
2022-12-03T07:41:57.065Z,2
2022-12-03T07:42:57.223Z,2
2022-12-03T07:43:57.375Z,2
2022-12-03T07:44:57.529Z,2
2022-12-03T07:45:57.688Z,2
2022-12-03T07:46:58.099Z,2
2022-12-03T07:47:58.425Z,2
2022-12-03T07:48:58.619Z,2
2022-12-03T07:49:58.783Z,2
2022-12-03T07:50:58.935Z,2
2022-12-03T07:51:59.089Z,2
2022-12-03T07:52:59.269Z,2
2022-12-03T07:53:59.419Z,2
2022-12-03T07:54:59.580Z,2
2022-12-03T07:55:59.733Z,2
2022-12-03T07:57:02.192Z,2
2022-12-03T07:58:02.368Z,2
2022-12-03T07:59:02.524Z,2
2022-12-03T08:00:02.682Z,2
2022-12-03T08:01:03.140Z,2
2022-12-03T08:02:03.654Z,2
2022-12-03T08:03:03.988Z,2
2022-12-03T08:04:04.141Z,2
2022-12-03T08:05:04.296Z,2
2022-12-03T08:06:04.449Z,2
2022-12-03T08:07:04.606Z,2
2022-12-03T08:08:04.866Z,2
2022-12-03T08:09:05.136Z,2
2022-12-03T08:10:05.294Z,2
2022-12-03T08:11:05.448Z,2
2022-12-03T08:12:05.600Z,2
2022-12-03T08:13:05.750Z,2
2022-12-03T08:14:05.912Z,2
2022-12-03T08:15:06.064Z,2.09
2022-12-03T08:16:06.310Z,2.09
2022-12-03T08:17:06.592Z,2.09
2022-12-03T08:18:06.745Z,2.09
2022-12-03T08:19:06.913Z,2.09
2022-12-03T08:20:07.071Z,2.09
2022-12-03T08:21:07.235Z,2.09
2022-12-03T08:22:07.389Z,2.09
2022-12-03T08:23:07.538Z,2.09
2022-12-03T08:24:07.693Z,2.09
2022-12-03T08:25:07.842Z,2.09
2022-12-03T08:26:07.990Z,2.09
2022-12-03T08:27:08.142Z,2.09
2022-12-03T08:28:08.304Z,2.09
2022-12-03T08:29:08.479Z,2.09
2022-12-03T08:30:08.664Z,2.09
2022-12-03T08:31:08.979Z,2.09
2022-12-03T08:32:09.369Z,2.09
2022-12-03T08:33:09.667Z,2.09
2022-12-03T08:34:09.862Z,2.09
2022-12-03T08:35:10.046Z,2.2
2022-12-03T08:36:10.200Z,2.2
2022-12-03T08:37:10.355Z,2.2
2022-12-03T08:38:10.545Z,2.2
2022-12-03T08:39:10.738Z,2.2
2022-12-03T08:40:10.921Z,2.2
2022-12-03T08:41:11.076Z,2.2
2022-12-03T08:42:14.175Z,2.2
2022-12-03T08:43:14.352Z,2.2
2022-12-03T08:44:14.505Z,2.2
2022-12-03T08:45:14.656Z,2.2
2022-12-03T08:46:14.973Z,2.2
2022-12-03T08:47:15.215Z,2.2
2022-12-03T08:48:15.365Z,2.2
2022-12-03T08:49:15.518Z,2.2
2022-12-03T08:50:15.676Z,2.2
2022-12-03T08:51:15.827Z,2.2
2022-12-03T08:52:15.979Z,2.2
2022-12-03T08:53:16.129Z,2.2
2022-12-03T08:54:16.273Z,2.2
2022-12-03T08:55:16.424Z,2.2
2022-12-03T08:56:16.586Z,2.2
2022-12-03T08:57:16.736Z,2.2
2022-12-03T08:58:16.887Z,2.2
2022-12-03T08:59:17.038Z,2.2
2022-12-03T09:00:17.198Z,2.2
2022-12-03T09:01:17.546Z,2.2
2022-12-03T09:02:17.825Z,2.2
2022-12-03T09:03:17.995Z,2.2
2022-12-03T09:04:18.223Z,2.2
2022-12-03T09:05:18.588Z,2.2
2022-12-03T09:06:18.743Z,2.2
2022-12-03T09:07:18.906Z,2.2
2022-12-03T09:08:19.219Z,2.2
2022-12-03T09:09:19.507Z,2.2
2022-12-03T09:10:19.662Z,2.2
2022-12-03T09:11:19.826Z,2.2
2022-12-03T09:12:19.977Z,2.2
2022-12-03T09:13:20.133Z,2.2
2022-12-03T09:14:20.290Z,2.2
2022-12-03T09:15:20.450Z,2.3
2022-12-03T09:16:20.772Z,2.3
2022-12-03T09:17:21.121Z,2.3
2022-12-03T09:18:21.275Z,2.3
2022-12-03T09:19:21.429Z,2.3
2022-12-03T09:20:21.585Z,2.3
2022-12-03T09:21:21.732Z,2.3
2022-12-03T09:22:21.896Z,2.3
2022-12-03T09:23:22.057Z,2.3
2022-12-03T09:24:22.216Z,2.3
2022-12-03T09:25:22.380Z,2.3
2022-12-03T09:26:22.531Z,2.3
2022-12-03T09:27:22.705Z,2.3
2022-12-03T09:28:22.861Z,2.3
2022-12-03T09:29:23.010Z,2.3
2022-12-03T09:30:23.355Z,2.3
2022-12-03T09:31:23.858Z,2.3
2022-12-03T09:32:24.383Z,2.3
2022-12-03T09:33:24.774Z,2.3
2022-12-03T09:34:24.929Z,2.3
2022-12-03T09:35:25.088Z,2.3
2022-12-03T09:36:25.237Z,2.3
2022-12-03T09:37:25.388Z,2.3
2022-12-03T09:38:25.540Z,2.3
2022-12-03T09:39:25.687Z,2.3
2022-12-03T09:40:25.834Z,2.3
2022-12-03T09:41:25.983Z,2.3
2022-12-03T09:42:26.155Z,2.3
2022-12-03T09:44:03.103Z,2.3
2022-12-03T09:45:05.647Z,2.3
2022-12-03T09:46:06.043Z,2.3
2022-12-03T09:47:06.349Z,2.3
2022-12-03T09:48:06.509Z,2.3
2022-12-03T09:49:15.474Z,2.3
2022-12-03T09:50:16.440Z,2.3
2022-12-03T09:51:16.629Z,2.3
2022-12-03T09:52:16.823Z,2.3
2022-12-03T09:53:17.009Z,2.3
2022-12-03T09:54:17.174Z,2.3
2022-12-03T09:55:17.370Z,2.4
2022-12-03T09:56:17.565Z,2.4
2022-12-03T09:57:17.729Z,2.4
2022-12-03T09:58:17.901Z,2.4
2022-12-03T09:59:18.063Z,2.4
2022-12-03T10:00:18.237Z,2.4
2022-12-03T10:01:18.552Z,2.4
2022-12-03T10:02:18.803Z,2.4
2022-12-03T10:03:19.002Z,2.4
2022-12-03T10:04:19.299Z,2.4
2022-12-03T10:05:19.592Z,2.5
2022-12-03T10:06:19.745Z,2.5
2022-12-03T10:07:19.898Z,2.5
2022-12-03T10:08:20.200Z,2.5
2022-12-03T10:09:20.584Z,2.5
2022-12-03T10:10:20.758Z,2.5
2022-12-03T10:11:20.956Z,2.5
2022-12-03T10:12:21.122Z,2.5
2022-12-03T10:13:26.206Z,2.5
2022-12-03T10:14:26.419Z,2.6
2022-12-03T10:15:26.578Z,2.6
2022-12-03T10:16:26.871Z,2.6
2022-12-03T10:17:27.113Z,2.6
2022-12-03T10:18:31.089Z,2.6
2022-12-03T10:19:34.655Z,2.7
2022-12-03T10:20:34.814Z,2.7
2022-12-03T10:21:34.972Z,2.7
2022-12-03T10:22:35.134Z,2.7
2022-12-03T10:23:35.290Z,2.7
2022-12-03T10:24:35.441Z,2.7
2022-12-03T10:25:35.602Z,2.7
2022-12-03T10:26:35.756Z,2.7
2022-12-03T10:27:35.921Z,2.7
2022-12-03T10:28:36.076Z,2.7
2022-12-03T10:29:36.237Z,2.7
2022-12-03T10:30:36.445Z,2.7
2022-12-03T10:31:36.689Z,2.7
2022-12-03T10:32:36.844Z,2.7
2022-12-03T10:33:36.996Z,2.7
2022-12-03T10:34:37.149Z,2.7
2022-12-03T10:35:37.299Z,2.9
2022-12-03T10:36:37.449Z,2.9
2022-12-03T10:37:37.605Z,2.9
2022-12-03T10:38:37.754Z,2.9
2022-12-03T10:39:37.901Z,2.9
2022-12-03T10:40:38.051Z,2.9
2022-12-03T10:41:38.199Z,2.9
2022-12-03T10:42:38.357Z,2.9
2022-12-03T10:43:38.509Z,2.9
2022-12-03T10:44:38.662Z,2.9
2022-12-03T10:45:38.812Z,2.9
2022-12-03T10:46:39.207Z,2.9
2022-12-03T10:47:39.895Z,2.9
2022-12-03T10:48:40.246Z,2.9
2022-12-03T10:49:40.397Z,2.9
2022-12-03T10:50:40.556Z,2.9
2022-12-03T10:51:40.706Z,2.9
2022-12-03T10:52:40.883Z,2.9
2022-12-03T10:53:41.065Z,2.9
2022-12-03T10:54:41.237Z,2.9
2022-12-03T10:55:41.393Z,3
2022-12-03T10:56:41.544Z,3
2022-12-03T10:57:46.433Z,3
2022-12-03T10:58:46.631Z,3
2022-12-03T10:59:46.779Z,3
2022-12-03T11:00:46.955Z,3
2022-12-03T11:01:47.447Z,3
2022-12-03T11:02:56.576Z,3
2022-12-03T11:03:57.742Z,3
2022-12-03T11:04:58.001Z,3
2022-12-03T11:05:58.149Z,3
2022-12-03T11:06:58.300Z,3
2022-12-03T11:07:58.640Z,3
2022-12-03T11:09:08.693Z,3
2022-12-03T11:10:09.508Z,3
2022-12-03T11:11:09.693Z,3
2022-12-03T11:12:09.873Z,3
2022-12-03T11:13:10.043Z,3
2022-12-03T11:14:10.205Z,3
2022-12-03T11:15:10.358Z,3
2022-12-03T11:16:10.804Z,3
2022-12-03T11:17:11.156Z,3
2022-12-03T11:18:11.307Z,3
2022-12-03T11:19:11.462Z,3
2022-12-03T11:20:11.616Z,3
2022-12-03T11:21:11.766Z,3
2022-12-03T11:22:11.934Z,3
2022-12-03T11:23:12.096Z,3
2022-12-03T11:24:12.246Z,3
2022-12-03T11:25:12.399Z,2.9
2022-12-03T11:26:19.702Z,2.9
2022-12-03T11:27:20.244Z,2.9
2022-12-03T11:28:20.396Z,2.9
2022-12-03T11:29:20.559Z,2.9
2022-12-03T11:30:20.708Z,2.9
2022-12-03T11:31:20.980Z,2.9
2022-12-03T11:32:21.240Z,2.9
2022-12-03T11:33:21.393Z,2.9
2022-12-03T11:34:21.543Z,2.9
2022-12-03T11:35:21.702Z,2.8
2022-12-03T11:37:00.653Z,2.8
2022-12-03T11:38:02.270Z,2.8
2022-12-03T11:39:02.433Z,2.8
2022-12-03T11:40:02.577Z,2.8
2022-12-03T11:41:02.733Z,2.8
2022-12-03T11:42:02.894Z,2.8
2022-12-03T11:43:03.053Z,2.8
2022-12-03T11:44:03.208Z,2.8
2022-12-03T11:45:03.363Z,2.8
2022-12-03T11:46:04.707Z,2.8
2022-12-03T11:47:05.153Z,2.8
2022-12-03T11:48:05.425Z,2.8
2022-12-03T11:49:05.578Z,2.8
2022-12-03T11:50:05.739Z,2.8
2022-12-03T11:51:05.894Z,2.8
2022-12-03T11:52:06.049Z,2.8
2022-12-03T11:53:06.203Z,2.8
2022-12-03T11:54:06.355Z,2.8
2022-12-03T11:55:06.509Z,2.8
2022-12-03T11:56:06.798Z,2.8
2022-12-03T11:57:06.947Z,2.8
2022-12-03T11:58:07.098Z,2.8
2022-12-03T11:59:07.255Z,2.8
2022-12-03T12:00:07.404Z,2.8
2022-12-03T12:01:07.559Z,2.8
2022-12-03T12:02:07.709Z,2.8
2022-12-03T12:03:08.019Z,2.8
2022-12-03T12:04:08.583Z,2.8
2022-12-03T12:05:08.856Z,2.7
2022-12-03T12:06:09.010Z,2.7
2022-12-03T12:07:09.163Z,2.7
2022-12-03T12:08:09.398Z,2.7
2022-12-03T12:09:09.678Z,2.7
2022-12-03T12:10:09.827Z,2.7
2022-12-03T12:11:09.983Z,2.7
2022-12-03T12:12:10.130Z,2.7
2022-12-03T12:13:10.283Z,2.7
2022-12-03T12:14:10.433Z,2.7
2022-12-03T12:15:10.587Z,2.7
2022-12-03T12:16:10.870Z,2.7
2022-12-03T12:17:11.085Z,2.7
2022-12-03T12:18:11.239Z,2.7
2022-12-03T12:19:11.391Z,2.7
2022-12-03T12:20:11.544Z,2.7
2022-12-03T12:21:11.703Z,2.7
2022-12-03T12:22:11.850Z,2.7
2022-12-03T12:23:12.005Z,2.7
2022-12-03T12:24:12.155Z,2.7
2022-12-03T12:25:12.305Z,2.7
2022-12-03T12:26:12.455Z,2.7
2022-12-03T12:27:12.610Z,2.7
2022-12-03T12:28:12.762Z,2.7
2022-12-03T12:29:12.920Z,2.7
2022-12-03T12:30:13.067Z,2.7
2022-12-03T12:31:13.346Z,2.7
2022-12-03T12:32:13.631Z,2.7
2022-12-03T12:33:13.793Z,2.7
2022-12-03T12:34:13.953Z,2.7
2022-12-03T12:35:14.111Z,2.6
2022-12-03T12:36:14.268Z,2.6
2022-12-03T12:37:14.421Z,2.6
2022-12-03T12:38:14.574Z,2.6
2022-12-03T12:39:14.728Z,2.6
2022-12-03T12:40:14.876Z,2.6
2022-12-03T12:41:15.028Z,2.6
2022-12-03T12:42:15.177Z,2.6
2022-12-03T12:43:23.952Z,2.6
2022-12-03T12:44:25.169Z,2.7
2022-12-03T12:45:25.319Z,2.7
2022-12-03T12:46:48.544Z,2.7
2022-12-03T12:47:49.337Z,2.7
2022-12-03T12:48:49.599Z,2.7
2022-12-03T12:49:52.176Z,2.7
2022-12-03T12:50:52.384Z,2.7
2022-12-03T12:51:52.544Z,2.7
2022-12-03T12:52:52.701Z,2.7
2022-12-03T12:53:52.854Z,2.7
2022-12-03T12:54:53.006Z,2.7
2022-12-03T12:55:53.155Z,2.7
2022-12-03T12:56:53.310Z,2.7
2022-12-03T12:57:53.468Z,2.7
2022-12-03T12:58:53.619Z,2.7
2022-12-03T12:59:54.356Z,2.7
2022-12-03T13:00:55.007Z,2.7
2022-12-03T13:01:55.426Z,2.7
2022-12-03T13:02:56.002Z,2.7
2022-12-03T13:03:56.259Z,2.7
2022-12-03T13:04:56.414Z,2.8
2022-12-03T13:05:56.580Z,2.8
2022-12-03T13:06:56.744Z,2.8
2022-12-03T13:07:57.101Z,2.8
2022-12-03T13:08:57.397Z,2.8
2022-12-03T13:09:57.559Z,2.8
2022-12-03T13:10:57.708Z,2.8
2022-12-03T13:11:57.863Z,2.8
2022-12-03T13:12:58.017Z,2.8
2022-12-03T13:13:58.169Z,2.8
2022-12-03T13:14:58.321Z,2.8
2022-12-03T13:15:58.619Z,2.8
2022-12-03T13:16:59.148Z,2.8
2022-12-03T13:17:59.462Z,2.8
2022-12-03T13:18:59.629Z,2.8
2022-12-03T13:20:08.033Z,2.8
2022-12-03T13:21:08.469Z,2.8
2022-12-03T13:22:08.622Z,2.8
2022-12-03T13:23:08.774Z,2.8
2022-12-03T13:24:08.920Z,2.8
2022-12-03T13:25:09.077Z,2.8
2022-12-03T13:26:36.390Z,2.8
2022-12-03T13:27:39.638Z,2.8
2022-12-03T13:28:39.793Z,2.8
2022-12-03T13:29:39.941Z,2.8
2022-12-03T13:30:40.094Z,2.8
2022-12-03T13:31:44.551Z,2.8
2022-12-03T13:32:44.957Z,2.8
2022-12-03T13:33:45.106Z,2.8
2022-12-03T13:34:45.260Z,2.8
2022-12-03T13:35:45.410Z,2.8
2022-12-03T13:36:45.562Z,2.8
2022-12-03T13:37:45.723Z,2.8
2022-12-03T13:38:45.877Z,2.8
2022-12-03T13:39:46.036Z,2.8
2022-12-03T13:40:46.189Z,2.8
2022-12-03T13:41:46.343Z,2.8
2022-12-03T13:42:46.574Z,2.8
2022-12-03T13:43:46.789Z,2.8
2022-12-03T13:44:46.961Z,2.8
2022-12-03T13:45:47.496Z,2.8
2022-12-03T13:46:47.741Z,2.8
2022-12-03T13:47:47.900Z,2.8
2022-12-03T13:48:48.061Z,2.8
2022-12-03T13:49:48.221Z,2.8
2022-12-03T13:50:48.378Z,2.8
2022-12-03T13:51:48.532Z,2.8
2022-12-03T13:52:48.689Z,2.8
2022-12-03T13:53:48.845Z,2.8
2022-12-03T13:54:49.002Z,2.8
2022-12-03T13:55:49.170Z,2.8
2022-12-03T13:56:49.328Z,2.8
2022-12-03T13:57:49.482Z,2.8
2022-12-03T13:58:49.632Z,2.8